Impacts METAR Board
IDs:

KATL - Atlanta/Hartsfield-J, GA, US

Updated at: 0200 UTC 23 Oct 2018
Potential Impact None Slight Moderate High
Time 22/14Z 22/15Z 22/16Z 22/17Z 22/18Z 22/19Z 22/20Z 22/21Z 22/22Z 22/23Z 23/00Z 23/01Z 23/02Z
Temp50 56 58 60 64 64 66 66 64 62 60 59 58
Dewpt38 36 35 37 37 35 36 37 37 39 39 40 41
Altim30.34 30.34 30.33 30.31 30.29 30.25 30.24 30.23 30.22 30.23 30.24 30.23 30.23
VIS10 10 10 10 10 10 10 10 10 10 10 10 10
CIG250 300 300 250 250 250 250 250 250 250 200 250 250
CoverBKNBKNBKNBKNBKNBKNBKNBKNBKNBKNBKNBKNBKN
FltCatVFRVFRVFRVFRVFRVFRVFRVFRVFRVFRVFRVFRVFR
WX--------------------------
WDir9012013014000001301301101000
WSpd6 7 8 8 5 4 3 4 5 4 5 5 0
WGst-- -- -- -- -- -- -- -- -- -- -- -- --
Raw hourly METARs
KATL 221352Z 09006KT 10SM BKN250 BKN300 10/03 A3034 RMK AO2 SLP275 T01000033
KATL 221452Z 12007KT 10SM SCT250 BKN300 13/02 A3034 RMK AO2 SLP274 T01330022 50015
KATL 221552Z 13008KT 10SM FEW200 SCT250 BKN300 14/02 A3033 RMK AO2 SLP270 T01440017
KATL 221652Z 14008KT 110V170 10SM FEW150 FEW200 BKN250 16/03 A3031 RMK AO2 SLP263 T01560028
KATL 221752Z VRB05KT 10SM FEW150 FEW200 BKN250 18/03 A3029 RMK AO2 SLP255 T01780028 10178 20067 58017
KATL 221852Z VRB04KT 10SM FEW150 SCT200 BKN250 18/02 A3025 RMK AO2 SLP243 T01780017
KATL 221952Z VRB03KT 10SM FEW150 FEW200 BKN250 19/02 A3024 RMK AO2 SLP238 T01890022
KATL 222052Z VRB04KT 10SM FEW150 FEW200 BKN250 19/03 A3023 RMK AO2 SLP234 T01890028 56020
KATL 222152Z 13005KT 10SM FEW150 SCT200 BKN250 18/03 A3022 RMK AO2 SLP234 T01780028
KATL 222252Z 13004KT 10SM FEW150 SCT200 BKN250 17/04 A3023 RMK AO2 SLP237 T01670039
KATL 222352Z 11005KT 10SM FEW150 BKN200 BKN250 16/04 A3024 RMK AO2 SLP240 T01560039 10194 20156 53004
KATL 230052Z 10005KT 10SM FEW150 SCT200 BKN250 15/04 A3023 RMK AO2 SLP239 T01500044
KATL 230152Z 00000KT 10SM FEW150 SCT200 BKN250 14/05 A3023 RMK AO2 SLP238 T01440050



Page loaded:  02:41 UTC  |   07:41 PM Pacific  |   08:41 PM Mountain  |   09:41 PM Central  |   10:41 PM Eastern

 

ADVISORIES

FORECASTS

FORECASTS

OBSERVATIONS

USER TOOLS

ABOUT US